createdAt,value
2022-10-02T00:00:37.555Z,100665.44
2022-10-02T00:03:14.932Z,100674.88
2022-10-02T00:05:50.149Z,100686.19
2022-10-02T00:08:24.476Z,100679.25
2022-10-02T00:10:57.790Z,100680.81
2022-10-02T00:13:37.397Z,100676.28
2022-10-02T00:16:10.170Z,100655.88
2022-10-02T00:18:42.141Z,100676.44
2022-10-02T00:21:25.569Z,100636.22
2022-10-02T00:23:59.288Z,100682.66
2022-10-02T00:26:34.244Z,100668.22
2022-10-02T00:29:21.390Z,100683.56
2022-10-02T00:32:00.575Z,100657.66
2022-10-02T00:34:39.721Z,100668.81
2022-10-02T00:37:22.432Z,100695.53
2022-10-02T00:40:03.111Z,100697.97
2022-10-02T00:43:11.168Z,100706.56
2022-10-02T00:46:01.892Z,100684.25
2022-10-02T00:48:50.128Z,100689.38
2022-10-02T00:51:41.842Z,100709.94
2022-10-02T00:54:47.803Z,100723.66
2022-10-02T00:57:29.182Z,100723.53
2022-10-02T01:00:08.069Z,100709.94
2022-10-02T01:03:00.778Z,100710.78
2022-10-02T01:05:30.863Z,100724.53
2022-10-02T01:08:00.859Z,100720.28
2022-10-02T01:10:32.464Z,100724.50
2022-10-02T01:13:02.200Z,100713.13
2022-10-02T01:15:36.032Z,100726.94
2022-10-02T01:18:10.210Z,100642.72
2022-10-02T01:20:43.176Z,100714.88
2022-10-02T01:23:25.664Z,100713.41
2022-10-02T01:25:58.120Z,100727.03
2022-10-02T01:28:28.317Z,100723.59
2022-10-02T01:31:03.934Z,100718.56
2022-10-02T01:33:34.506Z,100706.38
2022-10-02T01:36:04.633Z,100676.19
2022-10-02T01:38:34.764Z,100729.63
2022-10-02T01:41:07.606Z,100722.59
2022-10-02T01:43:40.125Z,100731.25
2022-10-02T01:46:27.442Z,100678.03
2022-10-02T01:49:09.062Z,100727.78
2022-10-02T01:51:56.807Z,100724.28
2022-10-02T01:54:36.425Z,100731.19
2022-10-02T01:57:15.535Z,100740.53
2022-10-02T01:59:56.579Z,100729.38
2022-10-02T02:02:32.525Z,100729.41
2022-10-02T02:05:11.141Z,100734.47
2022-10-02T02:07:50.434Z,100712.06
2022-10-02T02:10:26.391Z,100730.13
2022-10-02T02:13:05.562Z,100724.06
2022-10-02T02:15:42.801Z,100734.47
2022-10-02T02:18:19.830Z,100736.13
2022-10-02T02:20:53.517Z,100748.09
2022-10-02T02:23:29.107Z,100744.78
2022-10-02T02:26:03.688Z,100745.72
2022-10-02T02:28:38.064Z,100745.72
2022-10-02T02:31:10.424Z,100747.31
2022-10-02T02:33:45.383Z,100750.09
2022-10-02T02:36:21.001Z,100744.13
2022-10-02T02:38:54.804Z,100732.09
2022-10-02T02:41:30.435Z,100739.97
2022-10-02T02:44:05.810Z,100685.72
2022-10-02T02:47:01.527Z,100721.94
2022-10-02T02:49:37.741Z,100717.75
2022-10-02T02:52:13.228Z,100720.28
2022-10-02T02:54:48.809Z,100728.09
2022-10-02T02:57:21.244Z,100715.25
2022-10-02T02:59:56.422Z,100737.59
2022-10-02T03:02:26.264Z,100740.09
2022-10-02T03:04:56.105Z,100742.63
2022-10-02T03:07:25.909Z,100737.50
2022-10-02T03:10:04.883Z,100745.28
2022-10-02T03:12:51.048Z,100723.13
2022-10-02T03:15:32.710Z,100730.94
2022-10-02T03:18:20.219Z,100720.53
2022-10-02T03:21:00.086Z,100717.25
2022-10-02T03:23:35.651Z,100706.91
2022-10-02T03:26:11.219Z,100736.97
2022-10-02T03:28:57.064Z,100732.69
2022-10-02T03:31:33.898Z,100727.59
2022-10-02T03:34:06.105Z,100712.94
2022-10-02T03:36:36.833Z,100736.03
2022-10-02T03:39:25.916Z,100708.47
2022-10-02T03:41:57.119Z,100730.94
2022-10-02T03:44:27.373Z,100741.09
2022-10-02T03:46:59.657Z,100731.78
2022-10-02T03:49:29.341Z,100737.81
2022-10-02T03:51:59.085Z,100732.78
2022-10-02T03:54:33.610Z,100724.22
2022-10-02T03:57:08.147Z,100729.44
2022-10-02T03:59:47.429Z,100734.56
2022-10-02T04:02:29.948Z,100722.53
2022-10-02T04:05:05.617Z,100723.25
2022-10-02T04:07:40.960Z,100746.38
2022-10-02T04:10:22.033Z,100745.69
2022-10-02T04:12:54.805Z,100749.19
2022-10-02T04:15:30.779Z,100737.19
2022-10-02T04:18:09.651Z,100765.50
2022-10-02T04:20:46.579Z,100753.47
2022-10-02T04:23:23.775Z,100770.81
2022-10-02T04:25:58.193Z,100769.00
2022-10-02T04:28:33.652Z,100745.97
2022-10-02T04:31:04.173Z,100750.97
2022-10-02T04:33:38.456Z,100772.47
2022-10-02T04:36:22.479Z,100763.09
2022-10-02T04:39:07.124Z,100765.59
2022-10-02T04:42:00.248Z,100745.72
2022-10-02T04:44:43.111Z,100778.34
2022-10-02T04:47:31.998Z,100764.41
2022-10-02T04:50:21.837Z,100720.63
2022-10-02T04:53:12.197Z,100770.44
2022-10-02T04:55:54.826Z,100790.06
2022-10-02T04:58:39.002Z,100779.66
2022-10-02T05:01:16.694Z,100783.03
2022-10-02T05:04:21.926Z,100780.25
2022-10-02T05:07:08.502Z,100791.34
2022-10-02T05:09:44.335Z,100766.41
2022-10-02T05:12:31.755Z,100771.72
2022-10-02T05:15:18.803Z,100775.94
2022-10-02T05:18:03.689Z,100771.63
2022-10-02T05:21:10.219Z,100775.84
2022-10-02T05:23:53.117Z,100774.16
2022-10-02T05:26:47.031Z,100788.81
2022-10-02T05:29:39.339Z,100786.25
2022-10-02T05:32:21.535Z,100797.63
2022-10-02T05:35:06.651Z,100752.75
2022-10-02T05:37:50.199Z,100786.50
2022-10-02T05:40:29.685Z,100764.19
2022-10-02T05:43:08.958Z,100793.50
2022-10-02T05:45:41.942Z,100814.91
2022-10-02T05:48:20.264Z,100744.50
2022-10-02T05:50:55.922Z,100789.22
2022-10-02T05:53:36.750Z,100808.09
2022-10-02T05:56:16.775Z,100820.03
2022-10-02T05:58:53.040Z,100800.09
2022-10-02T06:01:28.897Z,100780.47
2022-10-02T06:04:05.095Z,100764.81
2022-10-02T06:06:39.694Z,100793.34
2022-10-02T06:09:20.126Z,100800.22
2022-10-02T06:11:55.794Z,100809.66
2022-10-02T06:14:30.528Z,100797.69
2022-10-02T06:17:04.280Z,100805.44
2022-10-02T06:19:39.952Z,100790.03
2022-10-02T06:22:15.877Z,100801.28
2022-10-02T06:24:53.859Z,100798.75
2022-10-02T06:27:35.275Z,100787.56
2022-10-02T06:30:08.284Z,100817.72
2022-10-02T06:32:46.466Z,100816.09
2022-10-02T06:35:18.491Z,100817.94
2022-10-02T06:38:10.521Z,100830.91
2022-10-02T06:40:50.801Z,100838.78
2022-10-02T06:43:36.829Z,100837.94
2022-10-02T06:46:22.956Z,100843.25
2022-10-02T06:48:59.368Z,100840.63
2022-10-02T06:51:42.020Z,100838.84
2022-10-02T06:54:35.984Z,100832.66
2022-10-02T06:57:24.663Z,100833.44
2022-10-02T07:00:12.215Z,100832.56
2022-10-02T07:03:07.705Z,100843.84
2022-10-02T07:05:56.016Z,100852.41
2022-10-02T07:08:40.148Z,100851.69
2022-10-02T07:11:18.507Z,100841.50
2022-10-02T07:14:07.155Z,100841.69
2022-10-02T07:17:05.232Z,100861.38
2022-10-02T07:19:55.407Z,100842.44
2022-10-02T07:22:44.975Z,100860.56
2022-10-02T07:25:31.647Z,100867.50
2022-10-02T07:28:11.647Z,100864.88
2022-10-02T07:30:52.203Z,100848.53
2022-10-02T07:33:34.128Z,100871.72
2022-10-02T07:36:12.372Z,100814.09
2022-10-02T07:38:57.986Z,100860.59
2022-10-02T07:42:03.909Z,100881.31
2022-10-02T07:44:57.512Z,100872.81
2022-10-02T07:47:45.007Z,100877.19
2022-10-02T07:50:25.371Z,100857.34
2022-10-02T07:53:05.757Z,100860.84
2022-10-02T07:55:41.916Z,100881.44
2022-10-02T07:58:16.835Z,100862.69
2022-10-02T08:00:51.703Z,100892.81
2022-10-02T08:03:27.122Z,100892.88
2022-10-02T08:06:01.688Z,100890.41
2022-10-02T08:08:41.146Z,100888.72
2022-10-02T08:11:16.446Z,100912.84
2022-10-02T08:13:52.638Z,100914.63
2022-10-02T08:16:26.462Z,100915.53
2022-10-02T08:19:02.640Z,100901.00
2022-10-02T08:21:41.635Z,100919.03
2022-10-02T08:24:16.983Z,100919.13
2022-10-02T08:26:54.573Z,100921.63
2022-10-02T08:29:30.884Z,100905.34
2022-10-02T08:32:01.280Z,100931.09
